Archival Weather

Heathrow

London, United Kingdom (EGLL)

Report from: Wednesday, December 6, 2023 7:20 AM GMT
Current time: Saturday, March 2, 2024 11:08 AM GMT

Current weather – Weather history – Daily summaries
Weather forecast

Temperature2.0°C (35.6°F)
Dew point1.0°C (33.8°F)
Winds 1 kts (0.5 m/s, 1.2 mph) Vrb
Winds variableWinds variable
Visibility5.6 mi. (9 km)
Clouds Sky clear
Altimeter30.03 in.Hg (1017 mB)
Relative humidity93 %
Density altitude-1,611 ft. (-491 m)
Remarks Fully automated report
No clouds detected
Flight conditions Visual Meteorological Conditions
Raw dataEGLL 060720Z AUTO VRB01KT 9000 NCD 02/01 Q1017 TEMPO 2000 BR
An error has occurred. This application may no longer respond until reloaded. Reload 🗙